Terminal Aerodrome Forecast
Issued by NWS

Home | Current Version | Previous Version | Text Only | Print | Product List | Glossary On
Versions: 1 2 3 4 5 6 7 8 9 10 11 12 13
000
FTUS44 KLIX 261734
TAFGPT
TAF
KGPT 261734Z 2618/2718 11006KT P6SM VCTS SCT022CB SCT035
     FM262100 15006KT P6SM BKN045 BKN140
     FM270000 14004KT P6SM SCT250
      TEMPO 2711/2713 5SM BR
     FM271400 07005KT P6SM SCT035=

USA.gov is the U.S. government's official web portal to all federal, state and local government web resources and services.